Terminal Aerodrome Forecast
Issued by NWS Portland, OR

Home | Current Version | Previous Version | Text Only | Print | Product List | Glossary On
Versions: 1 2 3 4 5 6 7 8 9 10 11 12 13 14 15 16 17 18 19 20 21 22 23 24 25 26 27 28 29 30 31 32 33 34 35 36 37 38 39 40 41
000
FTUS46 KPQR 211728
TAFAST
TAF
KAST 211728Z 2118/2218 19012G20KT 6SM -SHRA SCT025 BKN040
     FM212100 19013G22KT P6SM -RA SCT030 OVC045
     FM220400 19018G30KT 4SM RA OVC025
     FM220900 19025G38KT 5SM RA OVC025
     FM221500 20018G30KT 6SM -RA OVC025=

USA.gov is the U.S. government's official web portal to all federal, state and local government web resources and services.